Weather reports worldwide

Advertisment
Chinchilla/Cenad, Spain (8278): temperature & dewpoint: 22.01.2020 09:00:00 - 28.01.2020 09:00:00 (CET)Chinchilla/Cenad, Spain (8278): wind speed & gusts: 22.01.2020 09:00:00 - 28.01.2020 09:00:00 (CET)Chinchilla/Cenad, Spain (8278): wind direction: 22.01.2020 09:00:00 - 28.01.2020 09:00:00 (CET)Chinchilla/Cenad, Spain (8278): precipitation: 22.01.2020 09:00:00 - 28.01.2020 09:00:00 (CET)
Date & Time tt [°C] td [°C] ff [km/h] ff [kn] fx [km/h] fx [kn] dd rr [mm]
28.01.2020 09:00:00 - - - - - - - -
28.01.2020 08:00:00 6,0 3,8 15 8 30 16 WNW 0,0
28.01.2020 07:00:00 6,2 3,8 21 11 35 19 WNW -
28.01.2020 06:00:00 6,2 3,6 19 10 34 18 WNW 0,0
28.01.2020 05:00:00 6,0 3,2 25 13 35 19 WNW 0,0
28.01.2020 04:00:00 6,2 3,2 25 13 36 19 WNW 0,0
28.01.2020 03:00:00 5,8 2,9 24 13 37 20 WNW 0,0
28.01.2020 02:00:00 5,6 1,9 16 9 29 16 NW 0,0
28.01.2020 01:00:00 5,2 1,5 16 9 29 15 WNW -
28.01.2020 00:00:00 4,9 1,1 19 10 35 19 WNW 0,0
27.01.2020 23:00:00 4,9 0,9 19 10 30 16 WNW 0,0
27.01.2020 22:00:00 4,6 1,1 13 7 24 13 NW 0,0
27.01.2020 21:00:00 4,8 0,6 18 10 29 16 WNW 0,0
27.01.2020 20:00:00 5,1 0,9 21 11 30 16 WNW 0,0
27.01.2020 19:00:00 6,0 0,6 17 9 31 17 NW -
27.01.2020 18:00:00 6,6 1,1 11 6 33 18 NW 0,0
27.01.2020 17:00:00 7,3 1,1 19 10 40 22 NW 0,0
27.01.2020 16:00:00 7,5 0,2 19 11 37 20 NW 0,0
27.01.2020 15:00:00 8,2 0,9 21 12 35 19 WNW 0,0
27.01.2020 14:00:00 6,7 1,3 15 8 34 18 NW 0,0
27.01.2020 13:00:00 - - - - - - - -
27.01.2020 12:00:00 5,6 1,3 17 9 34 18 WNW 0,0
27.01.2020 11:00:00 3,6 0,9 13 7 26 14 NW 0,0
27.01.2020 10:00:00 2,0 0,6 9 5 24 13 WNW 0,0
27.01.2020 09:00:00 1,1 -0,3 15 8 32 17 NNW 0,0
27.01.2020 08:00:00 1,1 -0,3 17 9 26 14 NW 0,0
27.01.2020 07:00:00 0,9 -0,5 13 7 23 13 WNW -
27.01.2020 06:00:00 1,0 -0,5 12 7 20 11 NNW 0,0
27.01.2020 05:00:00 1,1 -0,3 11 6 20 11 NNW 0,0
27.01.2020 04:00:00 1,1 -0,3 9 5 19 10 NW 0,0
27.01.2020 03:00:00 1,4 -0,3 10 6 24 13 NNW 0,0
27.01.2020 02:00:00 1,9 0,0 14 8 27 14 NNW 0,0
27.01.2020 01:00:00 2,1 -0,3 13 7 25 13 NNW -
27.01.2020 00:00:00 2,8 0,0 14 8 21 12 NW 0,0
26.01.2020 23:00:00 3,5 0,2 10 5 16 9 NW 0,0
26.01.2020 22:00:00 3,9 0,9 9 5 23 12 NW 0,0
26.01.2020 21:00:00 4,5 1,3 13 7 21 11 NW 0,0
26.01.2020 20:00:00 5,1 1,5 11 6 22 12 NW 0,0
26.01.2020 19:00:00 5,4 1,7 10 5 21 12 NW -
26.01.2020 18:00:00 6,2 1,3 12 7 27 15 NW 0,0
26.01.2020 17:00:00 7,2 1,7 18 10 35 19 NW 0,0
26.01.2020 16:00:00 7,1 2,1 13 7 28 15 NW 0,0
26.01.2020 15:00:00 6,4 1,9 21 12 38 20 NNW 0,0
26.01.2020 14:00:00 6,5 2,7 17 9 35 19 NNW 0,0
26.01.2020 13:00:00 5,9 3,2 18 10 35 19 NNW -
26.01.2020 12:00:00 5,1 3,6 21 11 33 18 NNW 0,1
26.01.2020 11:00:00 4,8 3,8 16 9 32 17 NW 0,0
26.01.2020 10:00:00 4,5 3,4 18 10 29 16 NW 0,0
26.01.2020 09:00:00 4,2 3,2 15 8 28 15 NW 0,1
26.01.2020 08:00:00 4,2 3,0 9 5 26 14 NW 0,0
26.01.2020 07:00:00 4,1 2,9 13 7 25 13 NW -
26.01.2020 06:00:00 4,2 2,9 14 8 22 12 WNW 0,0
26.01.2020 05:00:00 4,4 3,0 12 6 19 11 WNW 0,0
26.01.2020 04:00:00 4,6 3,2 12 6 20 11 WNW 0,1
26.01.2020 03:00:00 4,8 3,4 9 5 13 7 WNW 0,1
26.01.2020 02:00:00 5,2 3,8 0 0 0 0 N 0,1
26.01.2020 01:00:00 5,2 3,8 0 0 0 0 N -
26.01.2020 00:00:00 5,2 3,8 0 0 6 3 N 0,1
25.01.2020 23:00:00 5,6 4,1 6 3 10 6 WSW 0,5
25.01.2020 22:00:00 5,5 3,6 8 5 16 9 SSE 0,2
25.01.2020 21:00:00 5,4 3,4 3 2 11 6 S 0,0
25.01.2020 20:00:00 5,0 2,7 7 4 13 7 SSE 0,0
25.01.2020 19:00:00 5,9 3,0 9 5 16 9 SSW -
25.01.2020 18:00:00 6,7 3,6 8 4 20 11 S 0,0
25.01.2020 17:00:00 7,4 4,3 14 8 21 11 S 0,1
25.01.2020 16:00:00 7,5 5,0 12 6 17 9 S 0,4
25.01.2020 15:00:00 7,6 4,1 8 4 15 8 SW 0,3
25.01.2020 14:00:00 8,6 3,4 10 5 24 13 WSW 0,0
25.01.2020 13:00:00 9,5 4,3 8 5 18 10 SSW -
25.01.2020 12:00:00 9,2 5,6 12 6 21 11 SSE 0,0
25.01.2020 11:00:00 7,9 4,1 13 7 20 11 SSE 0,0
25.01.2020 10:00:00 6,5 5,3 11 6 17 9 ESE 0,0
25.01.2020 09:00:00 4,9 3,8 13 7 16 9 SE 0,0
25.01.2020 08:00:00 4,9 3,8 11 6 19 10 SSE 0,0
25.01.2020 07:00:00 4,7 3,4 12 6 16 9 SE -
25.01.2020 06:00:00 4,7 3,4 11 6 18 10 SE 0,0
25.01.2020 05:00:00 4,8 3,4 13 7 21 11 SE 0,0
25.01.2020 04:00:00 5,0 3,6 9 5 21 11 SSE 0,0
25.01.2020 03:00:00 4,8 3,4 15 8 22 12 ESE 0,0
25.01.2020 02:00:00 5,2 3,8 12 7 24 13 SSE 0,0
25.01.2020 01:00:00 5,3 3,8 13 7 21 11 SE -
25.01.2020 00:00:00 5,2 3,8 13 7 23 12 SE 0,0
24.01.2020 23:00:00 5,3 3,8 14 8 19 11 ESE 0,0
24.01.2020 22:00:00 5,3 3,6 14 7 19 10 SE 0,0
24.01.2020 21:00:00 5,3 3,4 13 7 17 9 ESE 0,0
24.01.2020 20:00:00 5,6 3,6 12 6 15 8 ESE 0,0
24.01.2020 19:00:00 6,3 3,8 8 4 15 8 SSE -
24.01.2020 18:00:00 6,7 3,6 11 6 21 12 SSE 0,0
24.01.2020 17:00:00 7,4 3,6 11 6 19 11 S 0,0
24.01.2020 16:00:00 7,5 3,6 12 6 20 11 S 0,0
24.01.2020 15:00:00 7,7 4,1 11 6 21 12 SSE 0,0
24.01.2020 14:00:00 6,6 3,4 13 7 24 13 SSE 0,0
24.01.2020 13:00:00 6,6 4,1 16 9 25 13 SSE -
24.01.2020 12:00:00 5,4 4,1 13 7 23 12 SE 0,0
24.01.2020 11:00:00 4,6 3,6 18 10 22 12 SE 0,0
24.01.2020 10:00:00 4,0 3,0 16 8 23 12 ESE 0,0
24.01.2020 09:00:00 3,5 2,5 15 8 23 12 SE 0,0
24.01.2020 08:00:00 2,8 1,7 16 8 21 12 SE 0,0
24.01.2020 07:00:00 2,4 1,5 14 8 23 12 SE -
24.01.2020 06:00:00 1,5 0,4 17 9 25 13 ESE 0,0
24.01.2020 05:00:00 0,6 -0,5 16 9 24 13 E 0,0
24.01.2020 04:00:00 0,9 -0,5 12 6 19 10 E 0,0
24.01.2020 03:00:00 1,3 0,0 13 7 20 11 E 0,0
24.01.2020 02:00:00 2,0 0,6 11 6 19 10 E 0,0
24.01.2020 01:00:00 3,1 1,7 16 8 30 16 SE -
24.01.2020 00:00:00 3,6 2,1 20 11 29 16 ESE 0,0
23.01.2020 23:00:00 4,3 2,9 19 11 27 15 ESE 0,0
23.01.2020 22:00:00 4,4 2,9 19 10 28 15 SE 0,0
23.01.2020 21:00:00 4,6 2,9 19 11 26 14 SE 0,0
23.01.2020 20:00:00 4,6 2,3 16 9 22 12 SE 0,0
23.01.2020 19:00:00 5,4 2,1 11 6 21 11 SE -
23.01.2020 18:00:00 6,8 1,9 16 9 26 14 S 0,0
23.01.2020 17:00:00 7,4 1,5 18 10 29 16 S 0,0
23.01.2020 16:00:00 7,6 1,9 17 9 29 16 S 0,0
23.01.2020 15:00:00 7,6 1,7 19 11 32 17 S 0,0
23.01.2020 14:00:00 7,6 1,1 22 12 35 19 S 0,0
23.01.2020 13:00:00 7,1 2,9 18 10 30 16 S -
23.01.2020 12:00:00 6,0 3,0 14 8 32 17 S 0,0
23.01.2020 11:00:00 5,6 3,6 18 10 27 14 S 0,0
23.01.2020 10:00:00 4,4 3,2 12 6 20 11 SSE 0,0
23.01.2020 09:00:00 3,5 2,3 10 5 23 12 SE 0,0
23.01.2020 08:00:00 3,5 2,3 0 0 26 14 SE 0,0
23.01.2020 07:00:00 3,3 2,1 11 6 24 13 SSE -
23.01.2020 06:00:00 3,1 1,9 13 7 19 10 SE 0,1
23.01.2020 05:00:00 2,5 1,3 18 10 25 14 SE 0,0
23.01.2020 04:00:00 2,3 1,1 11 6 16 9 ESE 0,0
23.01.2020 03:00:00 1,9 0,4 13 7 19 11 ESE 0,0
23.01.2020 02:00:00 1,5 0,2 15 8 18 10 ESE 0,0
23.01.2020 01:00:00 1,5 0,0 15 8 18 10 ESE -
23.01.2020 00:00:00 1,7 0,2 14 7 19 11 E 0,0
22.01.2020 23:00:00 1,8 0,2 11 6 18 10 ESE 0,0
22.01.2020 22:00:00 2,2 0,4 14 8 19 11 E 0,0
22.01.2020 21:00:00 2,6 0,9 14 8 24 13 E 0,0
22.01.2020 20:00:00 3,1 1,1 16 8 21 12 ESE 0,0
22.01.2020 19:00:00 4,1 1,1 13 7 17 9 ESE -
22.01.2020 18:00:00 5,4 0,9 10 5 22 12 ESE 0,0
22.01.2020 17:00:00 7,9 2,3 15 8 23 12 SE 0,0
22.01.2020 16:00:00 8,1 1,9 16 9 25 13 ESE 0,0
22.01.2020 15:00:00 7,4 2,5 13 7 26 14 ESE 0,0
22.01.2020 14:00:00 8,2 3,2 14 7 28 15 E 0,0
22.01.2020 13:00:00 9,4 5,0 15 8 29 15 ESE -
22.01.2020 12:00:00 7,6 5,3 16 8 29 16 ESE 0,0
22.01.2020 11:00:00 6,1 5,1 18 10 30 16 ESE 0,0
22.01.2020 10:00:00 4,2 3,2 21 11 33 18 ESE 0,0
22.01.2020 09:00:00 2,2 1,3 19 10 32 17 ESE 0,0

tt = temperature
td = dewpoint
ff = wind speed
fx = gusts
dd = wind direction
rr = precipitation

Next stations